Pahala, Hawaii
Current Conditions -  °F | °C
As of 7:56 AM on Friday 24 Oct 2014 (Local Time) from PHSF Reporting Station
Clear Clear  
Wind Chill: 15°   Ceiling: Unl
Heat Index: 15°   Visibility: 10mi
Dew Point: 11°   Wind: 12mph
Humidity: 79%   Direction: 160°SSE
Pressure: 30.35"   Gusts: 16mph
Location:  19.2°N, 155.47°W
Report Text: PHSF 241756Z AUTO 16010G14KT 10SM CLR 15/11 A3035 RMK AO2 SLP173 T01470111 10147 20072 52010 $
Loading
Personal Weather Stations






























Interactive Weather Map
Tropical Storm Tracking
New forecast layout! Learn more

10-Day Weather Forecast

Advertisements
Track Severe Weather on mobile